Strona główna
METAR-TAF:

METAR-TAF

Lotnisko :

Bahía Blanca, Argentyna

Szerokość geograficzna: 38-44S, Długość geograficzna: 062-10W, wysokość: 75 m

Aktualna obserwacja pogody

Raport powstał 4 godziny i 26 minut temu, godzina 18:29 UTC
Wiatr 25 kt od południowo-południowy zachód w porywach dochodzący do 36 kt
Temperatura 10°C
Wilgotność 93%
Ciśnienie 1008 hPa
Widzialność: 3000 m
Zachmurzenie całkowite na wysokości 500 ft
słaby deszcz, mżawka

METAR: SAZB 301829Z 20025G36KT 3000 -RADZ OVC005 10/09 Q1008

czas: 19:55 (22:55 UTC)


TAF: brakujący

Obserwacja i prognoza pogody dla ponad 4000 lotnisk (raport METAR i TAF).

Dostępne stacje oznaczono żółtymi i czerwonymi punktami na mapie.

Najedź kursorem aby zobaczyć nazwę stacji.

Kliknij aby zobaczyć obserwacje i prognozy pogody.

Aby zmienić mapę: kliknij na zielony przycisk z czarnym krzyżykiem, aby powiększyć; na zielony przycisk z myślnikiem, aby pomniejszyć; na zielone strzałki, aby przejść do map sąsiednich.


METAR-TAF: